Time;durP1;ratioP1;P1;durP2;ratioP2;P2;SDS_P1;SDS_P2;PMS_P1;PMS_P2;Temp;Humidity;BMP_temperature;BMP_pressure;BME280_temperature;BME280_humidity;BME280_pressure;Samples;Min_cycle;Max_cycle;Signal;HPM_P1;HPM_P2
2021/06/18 00:00:27;;;;;;;3.10;2.10;;;27.60;51.10;;;;;;5087982;28;20462;-57
2021/06/18 00:02:54;;;;;;;2.70;2.10;;;27.60;51.10;;;;;;5087650;28;20039;-59
2021/06/18 00:05:20;;;;;;;3.13;2.30;;;27.60;51.20;;;;;;5088456;28;20102;-59
2021/06/18 00:07:47;;;;;;;3.05;2.58;;;27.50;51.20;;;;;;5091236;28;20020;-57
2021/06/18 00:10:15;;;;;;;2.67;2.17;;;27.50;51.20;;;;;;5086495;28;20037;-60
2021/06/18 00:12:41;;;;;;;2.45;2.25;;;27.50;51.20;;;;;;5087726;28;20029;-57
2021/06/18 00:15:09;;;;;;;2.42;2.13;;;27.60;51.30;;;;;;5088669;28;20028;-58
2021/06/18 00:17:35;;;;;;;3.08;2.50;;;27.50;51.30;;;;;;5087134;28;21101;-59
2021/06/18 00:20:01;;;;;;;3.05;2.50;;;27.50;51.30;;;;;;5086241;28;20054;-58
2021/06/18 00:22:26;;;;;;;2.53;2.28;;;27.50;51.30;;;;;;5091375;28;20385;-59
2021/06/18 00:24:53;;;;;;;2.38;2.17;;;27.50;51.30;;;;;;5089524;28;20028;-58
2021/06/18 00:27:19;;;;;;;2.60;2.10;;;27.50;51.40;;;;;;5091581;28;20047;-59
2021/06/18 00:29:46;;;;;;;3.03;2.33;;;27.60;51.50;;;;;;5090788;28;20020;-58
2021/06/18 00:32:12;;;;;;;2.67;2.35;;;27.50;51.30;;;;;;5091224;28;20024;-57
2021/06/18 00:34:37;;;;;;;2.88;2.22;;;27.50;51.40;;;;;;5076565;28;20470;-58
2021/06/18 00:37:03;;;;;;;2.05;1.80;;;27.50;51.30;;;;;;5083366;28;20040;-58
2021/06/18 00:39:29;;;;;;;3.38;2.30;;;27.50;51.30;;;;;;5084442;28;20373;-55
2021/06/18 00:41:55;;;;;;;2.75;2.40;;;27.50;51.40;;;;;;5087526;28;20035;-57
2021/06/18 00:44:21;;;;;;;2.40;1.92;;;27.50;51.40;;;;;;5091880;28;20066;-57
2021/06/18 00:46:46;;;;;;;2.40;1.83;;;27.50;51.40;;;;;;5089345;28;20043;-59
2021/06/18 00:49:14;;;;;;;2.53;2.00;;;27.50;51.40;;;;;;5089710;28;20028;-59
2021/06/18 00:51:40;;;;;;;2.80;2.30;;;27.50;51.30;;;;;;5083094;28;20032;-56
2021/06/18 00:54:06;;;;;;;2.35;2.10;;;27.50;51.40;;;;;;5093341;28;21664;-59
2021/06/18 00:56:33;;;;;;;2.50;2.00;;;27.50;51.30;;;;;;5082810;28;20074;-58
2021/06/18 00:58:59;;;;;;;2.67;2.10;;;27.50;51.30;;;;;;5078910;28;20355;-58
2021/06/18 01:01:25;;;;;;;2.92;2.15;;;27.50;51.60;;;;;;5085596;28;20477;-58
2021/06/18 01:03:52;;;;;;;2.33;2.13;;;27.50;51.40;;;;;;5093183;28;20115;-60
2021/06/18 01:06:23;;;;;;;2.20;2.00;;;27.50;51.40;;;;;;5090544;28;20032;-58
2021/06/18 01:08:58;;;;;;;2.15;1.98;;;27.50;51.40;;;;;;5080751;28;20050;-60
2021/06/18 01:11:31;;;;;;;2.55;2.28;;;27.50;51.40;;;;;;5087640;28;20460;-58
2021/06/18 01:14:34;;;;;;;2.67;2.25;;;27.50;51.40;;;;;;5084140;28;20061;-59
2021/06/18 01:17:26;;;;;;;2.42;2.22;;;27.50;51.40;;;;;;5056555;28;20062;-59
2021/06/18 01:20:15;;;;;;;2.60;2.00;;;27.50;51.40;;;;;;5068186;28;20039;-59
2021/06/18 01:22:44;;;;;;;2.35;2.15;;;27.50;51.40;;;;;;5081031;28;20056;-59
2021/06/18 01:25:19;;;;;;;2.22;2.00;;;27.40;51.30;;;;;;5082314;28;20354;-59
2021/06/18 01:27:52;;;;;;;2.67;2.20;;;27.40;51.30;;;;;;5082226;28;20063;-59
2021/06/18 01:30:23;;;;;;;2.45;2.17;;;27.40;51.30;;;;;;5076776;28;20078;-59
2021/06/18 01:33:04;;;;;;;2.53;2.22;;;27.40;51.40;;;;;;5084198;28;20340;-56
2021/06/18 01:35:38;;;;;;;2.60;2.40;;;27.40;51.30;;;;;;5088371;28;20028;-57
2021/06/18 01:38:08;;;;;;;2.38;2.15;;;27.40;51.30;;;;;;5082423;28;20043;-59
2021/06/18 01:40:37;;;;;;;2.42;2.15;;;27.40;51.30;;;;;;5081374;28;20498;-58
2021/06/18 01:43:06;;;;;;;2.67;2.20;;;27.40;51.30;;;;;;5078693;28;20029;-58
2021/06/18 01:45:33;;;;;;;3.78;2.45;;;27.40;51.30;;;;;;5090636;28;20352;-58
2021/06/18 01:48:03;;;;;;;2.40;2.20;;;27.40;51.30;;;;;;5078666;28;20035;-59
2021/06/18 01:50:30;;;;;;;2.28;2.08;;;27.40;51.30;;;;;;5091754;28;20024;-56
2021/06/18 01:53:03;;;;;;;2.50;2.30;;;27.40;51.30;;;;;;5083336;28;20025;-58
2021/06/18 01:55:31;;;;;;;2.10;1.90;;;27.40;51.30;;;;;;5079825;28;20120;-57
2021/06/18 01:58:01;;;;;;;2.78;2.40;;;27.40;51.30;;;;;;5080224;28;20091;-58
2021/06/18 02:00:34;;;;;;;2.42;2.15;;;27.40;51.30;;;;;;5091074;28;20352;-59
2021/06/18 02:03:02;;;;;;;2.58;2.22;;;27.40;51.30;;;;;;5086689;28;20327;-59
2021/06/18 02:05:31;;;;;;;3.13;2.47;;;27.40;51.30;;;;;;5075265;28;20401;-58
2021/06/18 02:07:59;;;;;;;2.70;2.30;;;27.40;51.30;;;;;;5084391;28;20016;-58
2021/06/18 02:10:26;;;;;;;2.53;2.13;;;27.40;51.30;;;;;;5079262;28;20028;-55
2021/06/18 02:12:54;;;;;;;2.47;2.28;;;27.40;51.30;;;;;;5081575;28;20359;-57
2021/06/18 02:15:21;;;;;;;3.42;2.53;;;27.40;51.30;;;;;;5090054;28;20418;-57
2021/06/18 02:17:49;;;;;;;2.70;2.45;;;27.30;51.30;;;;;;5092338;28;20367;-59
2021/06/18 02:20:16;;;;;;;2.30;2.10;;;27.30;51.30;;;;;;5081751;28;20067;-59
2021/06/18 02:22:45;;;;;;;3.08;2.53;;;27.30;51.30;;;;;;5089712;28;20456;-59
2021/06/18 02:25:14;;;;;;;2.63;2.40;;;27.30;51.30;;;;;;5084443;28;20404;-57
2021/06/18 02:27:40;;;;;;;3.13;2.47;;;27.40;51.40;;;;;;5077333;28;20028;-59
2021/06/18 02:30:08;;;;;;;3.92;2.45;;;27.30;51.30;;;;;;5082897;28;20024;-59
2021/06/18 02:32:36;;;;;;;3.03;2.47;;;27.30;51.30;;;;;;5082114;28;20032;-60
2021/06/18 02:35:03;;;;;;;3.20;2.42;;;27.30;51.30;;;;;;5084341;28;20031;-58
2021/06/18 02:37:28;;;;;;;3.33;2.30;;;27.30;51.30;;;;;;5082717;28;20582;-59
2021/06/18 02:39:54;;;;;;;2.45;2.25;;;27.30;51.30;;;;;;5088521;28;20099;-59
2021/06/18 02:42:20;;;;;;;3.13;2.38;;;27.30;51.30;;;;;;5079480;28;20039;-59
2021/06/18 02:44:46;;;;;;;2.88;2.58;;;27.30;51.40;;;;;;5077514;28;20036;-57
2021/06/18 02:47:38;;;;;;;2.88;2.55;;;27.30;51.40;;;;;;5077620;28;20028;-60
2021/06/18 02:50:41;;;;;;;2.88;2.50;;;27.30;51.40;;;;;;5079311;28;20028;-60
2021/06/18 02:53:33;;;;;;;2.67;2.40;;;27.30;51.40;;;;;;5089539;28;20051;-58
2021/06/18 02:56:08;;;;;;;2.42;2.10;;;27.30;51.40;;;;;;5082268;28;20044;-60
2021/06/18 02:59:02;;;;;;;3.08;2.72;;;27.30;51.50;;;;;;5076973;28;20063;-58
2021/06/18 03:01:30;;;;;;;2.97;2.50;;;27.30;51.50;;;;;;5078146;28;20110;-59
2021/06/18 03:03:59;;;;;;;2.40;2.20;;;27.30;51.50;;;;;;5093762;28;20020;-59
2021/06/18 03:06:29;;;;;;;2.95;2.65;;;27.30;51.50;;;;;;5079856;28;20040;-58
2021/06/18 03:09:01;;;;;;;2.88;2.40;;;27.30;51.50;;;;;;5075429;28;20031;-59
2021/06/18 03:11:35;;;;;;;2.42;2.20;;;27.30;51.50;;;;;;5074550;28;20033;-58
2021/06/18 03:14:02;;;;;;;;;;;27.30;51.60;;;;;;5083198;28;20028;-59
2021/06/18 03:16:29;;;;;;;2.30;2.10;;;27.20;51.50;;;;;;5094051;28;19915;-57
2021/06/18 03:18:59;;;;;;;3.45;2.47;;;27.20;51.50;;;;;;5090541;28;20016;-59
2021/06/18 03:21:26;;;;;;;2.42;2.22;;;27.20;51.50;;;;;;5093627;28;20043;-60
2021/06/18 03:23:54;;;;;;;2.67;2.40;;;27.30;51.60;;;;;;5092979;28;20032;-58
2021/06/18 03:26:21;;;;;;;2.58;2.13;;;27.20;51.50;;;;;;5083909;28;20032;-59
2021/06/18 03:28:47;;;;;;;3.35;2.53;;;27.20;51.50;;;;;;5086385;28;20027;-59
2021/06/18 03:31:16;;;;;;;2.95;2.53;;;27.20;51.50;;;;;;5074622;28;20024;-59
2021/06/18 03:33:44;;;;;;;3.10;2.63;;;27.20;51.50;;;;;;5090502;28;20110;-59
2021/06/18 03:36:10;;;;;;;4.38;2.67;;;27.20;51.50;;;;;;5075748;28;20060;-59
2021/06/18 03:38:37;;;;;;;2.60;2.40;;;27.20;51.60;;;;;;5091406;28;20045;-60
2021/06/18 03:41:03;;;;;;;2.83;2.63;;;27.20;51.60;;;;;;5094540;28;20494;-59
2021/06/18 03:43:30;;;;;;;2.78;2.35;;;27.20;51.60;;;;;;5080199;28;20028;-58
2021/06/18 03:46:01;;;;;;;3.13;2.47;;;27.20;51.60;;;;;;5073919;28;20086;-59
2021/06/18 03:48:29;;;;;;;2.60;2.40;;;27.20;51.60;;;;;;5093035;28;20102;-58
2021/06/18 03:50:54;;;;;;;4.95;2.80;;;27.20;51.60;;;;;;5093244;28;20032;-59
2021/06/18 03:53:21;;;;;;;2.95;2.70;;;27.20;51.60;;;;;;5093038;28;20355;-59
2021/06/18 03:55:47;;;;;;;3.50;2.83;;;27.20;51.70;;;;;;5093835;28;20032;-59
2021/06/18 03:58:19;;;;;;;3.13;2.83;;;27.30;51.70;;;;;;5090812;28;20032;-60
2021/06/18 04:00:47;;;;;;;2.42;2.22;;;27.20;51.70;;;;;;5093932;28;20066;-59
2021/06/18 04:03:13;;;;;;;4.07;3.00;;;27.20;51.70;;;;;;5079034;28;20036;-60
2021/06/18 04:05:43;;;;;;;2.90;2.65;;;27.20;51.70;;;;;;5089992;28;20039;-56
2021/06/18 04:08:12;;;;;;;3.08;2.70;;;27.20;51.70;;;;;;5093278;28;20156;-58
2021/06/18 04:10:43;;;;;;;3.00;2.70;;;27.20;51.80;;;;;;5077269;28;20432;-57
2021/06/18 04:13:10;;;;;;;3.28;2.60;;;27.20;51.80;;;;;;5092636;28;20032;-56
2021/06/18 04:15:36;;;;;;;3.10;2.80;;;27.20;51.80;;;;;;5083766;28;20069;-59
2021/06/18 04:18:03;;;;;;;2.50;2.30;;;27.20;51.90;;;;;;5093205;28;20028;-60
2021/06/18 04:20:31;;;;;;;2.63;2.42;;;27.20;51.90;;;;;;5072095;28;20139;-59
2021/06/18 04:22:57;;;;;;;2.90;2.70;;;27.20;51.90;;;;;;5093985;28;20031;-57
2021/06/18 04:25:23;;;;;;;3.05;2.78;;;27.20;51.90;;;;;;5083727;28;20028;-56
2021/06/18 04:27:50;;;;;;;2.42;2.22;;;27.20;51.90;;;;;;5089239;28;20024;-59
2021/06/18 04:30:18;;;;;;;1.98;1.85;;;27.20;52.00;;;;;;5085313;28;20101;-60
2021/06/18 04:32:44;;;;;;;2.67;2.47;;;27.20;52.00;;;;;;5093486;28;20043;-59
2021/06/18 04:35:11;;;;;;;3.15;2.60;;;27.20;52.00;;;;;;5097255;28;20051;-60
2021/06/18 04:37:38;;;;;;;3.15;2.50;;;27.20;52.10;;;;;;5096381;28;20036;-58
2021/06/18 04:40:06;;;;;;;3.42;2.28;;;27.20;52.20;;;;;;5093117;28;20047;-59
2021/06/18 04:42:32;;;;;;;2.83;2.47;;;27.20;52.20;;;;;;5096307;28;20030;-58
2021/06/18 04:44:57;;;;;;;2.90;2.53;;;27.20;52.20;;;;;;5096369;28;20103;-58
2021/06/18 04:47:24;;;;;;;2.70;2.22;;;27.20;52.30;;;;;;5096808;28;20029;-58
2021/06/18 04:49:50;;;;;;;2.70;2.20;;;27.20;52.40;;;;;;5096816;28;20097;-59
2021/06/18 04:52:17;;;;;;;3.17;2.70;;;27.20;52.40;;;;;;5095641;28;20044;-58
2021/06/18 04:54:43;;;;;;;3.20;2.63;;;27.20;52.50;;;;;;5090419;28;20113;-59
2021/06/18 04:57:09;;;;;;;2.60;2.40;;;27.20;52.50;;;;;;5094712;28;20414;-56
2021/06/18 04:59:39;;;;;;;2.72;2.25;;;27.20;53.20;;;;;;5091674;28;20127;-59
2021/06/18 05:02:05;;;;;;;2.10;1.90;;;27.20;52.60;;;;;;5094818;28;20069;-57
2021/06/18 05:04:32;;;;;;;1.75;1.65;;;27.20;52.80;;;;;;5096832;28;20028;-59
2021/06/18 05:06:58;;;;;;;2.15;1.80;;;27.20;52.80;;;;;;5096476;28;20035;-59
2021/06/18 05:09:24;;;;;;;2.92;1.88;;;27.20;52.90;;;;;;5095823;28;20343;-57
2021/06/18 05:11:49;;;;;;;2.08;1.88;;;27.20;53.00;;;;;;5096878;28;20028;-59
2021/06/18 05:14:15;;;;;;;2.78;1.70;;;27.20;53.00;;;;;;5095227;28;20032;-59
2021/06/18 05:16:42;;;;;;;2.60;2.05;;;27.20;53.10;;;;;;5096391;28;20042;-58
2021/06/18 05:19:09;;;;;;;2.40;1.98;;;27.20;53.20;;;;;;5094146;28;20024;-57
2021/06/18 05:21:35;;;;;;;2.75;1.90;;;27.20;53.20;;;;;;5096172;28;20039;-58
2021/06/18 05:24:01;;;;;;;3.20;2.10;;;27.20;53.20;;;;;;5090624;28;20033;-59
2021/06/18 05:26:32;;;;;;;3.78;1.98;;;27.20;53.30;;;;;;5093624;28;20451;-56
2021/06/18 05:28:58;;;;;;;1.95;1.75;;;27.20;53.30;;;;;;5081766;28;20028;-59
2021/06/18 05:31:24;;;;;;;5.13;1.63;;;27.20;53.40;;;;;;5079617;28;20020;-58
2021/06/18 05:33:51;;;;;;;1.88;1.70;;;27.20;53.40;;;;;;5086754;28;20434;-57
2021/06/18 05:36:16;;;;;;;2.35;2.10;;;27.20;53.40;;;;;;5085811;28;20446;-58
2021/06/18 05:38:42;;;;;;;2.10;1.85;;;27.20;53.40;;;;;;5086910;28;20030;-59
2021/06/18 05:41:08;;;;;;;2.28;2.08;;;27.20;53.50;;;;;;5076510;28;20432;-59
2021/06/18 05:43:34;;;;;;;2.47;2.28;;;27.20;53.60;;;;;;5082825;28;20032;-57
2021/06/18 05:46:00;;;;;;;2.80;2.05;;;27.20;53.60;;;;;;5088267;28;20036;-57
2021/06/18 05:48:27;;;;;;;2.42;2.22;;;27.20;53.70;;;;;;5090342;28;20043;-60
2021/06/18 05:50:53;;;;;;;2.28;2.08;;;27.20;53.80;;;;;;5081732;28;20320;-58
2021/06/18 05:53:20;;;;;;;3.90;2.45;;;27.20;53.80;;;;;;5093675;28;20020;-59
2021/06/18 05:55:46;;;;;;;2.35;2.15;;;27.20;53.90;;;;;;5079862;28;20071;-59
2021/06/18 05:58:12;;;;;;;2.55;2.30;;;27.20;53.90;;;;;;5089739;28;20040;-57
2021/06/18 06:00:38;;;;;;;2.47;2.20;;;27.20;54.00;;;;;;5085662;28;20055;-59
2021/06/18 06:03:04;;;;;;;3.42;2.53;;;27.20;54.00;;;;;;5091619;28;20074;-55
2021/06/18 06:05:30;;;;;;;2.85;2.55;;;27.20;54.10;;;;;;5090056;28;20039;-59
2021/06/18 06:07:56;;;;;;;2.30;2.10;;;27.20;54.10;;;;;;5087358;28;20024;-59
2021/06/18 06:10:21;;;;;;;2.33;2.13;;;27.20;54.20;;;;;;5083284;28;20450;-58
2021/06/18 06:12:47;;;;;;;2.67;2.08;;;27.20;54.20;;;;;;5075832;28;20059;-57
2021/06/18 06:15:13;;;;;;;2.47;2.28;;;27.20;54.20;;;;;;5090460;28;20434;-58
2021/06/18 06:17:39;;;;;;;2.55;2.30;;;27.20;54.30;;;;;;5081727;28;20028;-59
2021/06/18 06:20:06;;;;;;;2.35;1.95;;;27.20;54.30;;;;;;5079954;28;20048;-58
2021/06/18 06:22:33;;;;;;;2.97;2.38;;;27.20;54.40;;;;;;5090393;28;20039;-60
2021/06/18 06:24:59;;;;;;;2.55;2.30;;;27.20;54.40;;;;;;5080426;28;20371;-58
2021/06/18 06:27:26;;;;;;;3.08;2.33;;;27.20;54.50;;;;;;5085685;28;20044;-58
2021/06/18 06:29:52;;;;;;;2.55;2.15;;;27.20;54.60;;;;;;5091106;28;20103;-58
2021/06/18 06:32:18;;;;;;;3.03;2.25;;;27.20;54.60;;;;;;5087704;28;20035;-59
2021/06/18 06:34:44;;;;;;;2.20;2.00;;;27.20;54.70;;;;;;5089307;28;20344;-56
2021/06/18 06:37:10;;;;;;;2.88;2.58;;;27.20;54.70;;;;;;5087310;28;20040;-59
2021/06/18 06:39:36;;;;;;;2.25;2.05;;;27.30;54.80;;;;;;5073775;28;20024;-59
2021/06/18 06:42:04;;;;;;;2.25;2.00;;;27.30;54.80;;;;;;5077820;28;20028;-56
2021/06/18 06:44:30;;;;;;;3.05;2.30;;;27.30;54.90;;;;;;5080425;28;20027;-59
2021/06/18 06:46:55;;;;;;;2.15;1.98;;;27.30;54.90;;;;;;5084854;28;20035;-56
2021/06/18 06:49:21;;;;;;;2.45;2.25;;;27.30;54.90;;;;;;5081299;28;20082;-61
2021/06/18 06:51:47;;;;;;;2.42;2.22;;;27.30;55.00;;;;;;5077557;28;20437;-59
2021/06/18 06:54:13;;;;;;;2.65;2.42;;;27.30;55.00;;;;;;5085084;28;20040;-56
2021/06/18 06:56:38;;;;;;;2.60;2.33;;;27.30;55.00;;;;;;5084073;28;20064;-59
2021/06/18 06:59:04;;;;;;;2.40;2.20;;;27.30;55.10;;;;;;5080590;28;20437;-60
2021/06/18 07:01:30;;;;;;;3.20;2.35;;;27.30;55.10;;;;;;5081596;28;20358;-60
2021/06/18 07:03:56;;;;;;;2.60;2.40;;;27.30;55.10;;;;;;5084245;28;20097;-59
2021/06/18 07:06:22;;;;;;;2.60;2.20;;;27.30;55.10;;;;;;5085301;28;20120;-59
2021/06/18 07:08:48;;;;;;;3.92;2.08;;;27.30;55.10;;;;;;5083171;28;20028;-58
2021/06/18 07:11:14;;;;;;;2.63;1.98;;;27.30;55.20;;;;;;5079309;28;20054;-60
2021/06/18 07:13:40;;;;;;;2.63;2.42;;;27.40;55.30;;;;;;5076801;28;20035;-60
2021/06/18 07:16:06;;;;;;;2.28;2.05;;;27.40;55.40;;;;;;5085163;28;20455;-61
2021/06/18 07:18:35;;;;;;;2.25;2.03;;;27.40;55.40;;;;;;5090910;28;20112;-61
2021/06/18 07:21:01;;;;;;;2.08;1.92;;;27.40;55.40;;;;;;5079269;28;20036;-61
2021/06/18 07:23:27;;;;;;;2.75;2.20;;;27.40;55.40;;;;;;5083540;28;20097;-62
2021/06/18 07:25:52;;;;;;;2.58;2.05;;;27.50;55.40;;;;;;5082446;28;20027;-61
2021/06/18 07:28:18;;;;;;;2.78;2.35;;;27.50;55.30;;;;;;5080522;28;20085;-61
2021/06/18 07:30:44;;;;;;;2.15;1.95;;;27.50;55.30;;;;;;5083623;28;20121;-61
2021/06/18 07:33:10;;;;;;;2.60;2.30;;;27.50;55.20;;;;;;5082134;28;20028;-62
2021/06/18 07:35:36;;;;;;;1.95;1.85;;;27.50;55.20;;;;;;5091504;28;20028;-61
2021/06/18 07:38:03;;;;;;;2.13;1.90;;;27.50;55.10;;;;;;5074819;28;20036;-62
2021/06/18 07:40:29;;;;;;;3.15;2.33;;;27.50;55.00;;;;;;5088325;28;20033;-62
2021/06/18 07:42:55;;;;;;;2.30;2.10;;;27.60;55.00;;;;;;5093368;28;20032;-62
2021/06/18 07:45:21;;;;;;;2.08;1.92;;;27.60;54.90;;;;;;5094209;28;20036;-61
2021/06/18 07:47:47;;;;;;;2.50;2.30;;;27.60;54.80;;;;;;5093555;28;20036;-62
2021/06/18 07:50:15;;;;;;;9.32;2.40;;;27.60;54.70;;;;;;5094284;28;20028;-61
2021/06/18 07:52:41;;;;;;;2.42;2.22;;;27.70;54.70;;;;;;5092527;28;20031;-61
2021/06/18 07:55:11;;;;;;;2.50;2.30;;;27.70;54.70;;;;;;5077342;28;20416;-62
2021/06/18 07:57:37;;;;;;;3.50;2.30;;;27.70;55.20;;;;;;5088916;28;20036;-61
2021/06/18 08:00:05;;;;;;;2.40;2.20;;;27.70;54.50;;;;;;5085525;28;20043;-61
2021/06/18 08:02:37;;;;;;;2.65;2.30;;;27.70;54.50;;;;;;5086203;28;20090;-61
2021/06/18 08:05:04;;;;;;;3.40;2.88;;;27.80;54.50;;;;;;5077461;28;20514;-61
2021/06/18 08:07:29;;;;;;;2.80;2.58;;;27.80;54.30;;;;;;5086587;28;20028;-61
2021/06/18 08:09:55;;;;;;;3.08;2.80;;;27.80;54.20;;;;;;5087063;28;20086;-62
2021/06/18 08:12:22;;;;;;;3.35;2.47;;;27.80;54.20;;;;;;5079612;28;20029;-61
2021/06/18 08:14:49;;;;;;;3.22;2.85;;;27.70;54.10;;;;;;5092690;28;20067;-61
2021/06/18 08:17:15;;;;;;;3.63;2.72;;;27.80;54.20;;;;;;5092009;28;20044;-61
2021/06/18 08:19:41;;;;;;;4.95;2.67;;;27.80;54.20;;;;;;5094304;28;20552;-60
2021/06/18 08:22:07;;;;;;;3.97;2.60;;;27.80;54.00;;;;;;5091203;28;20111;-60
2021/06/18 08:24:33;;;;;;;2.85;2.65;;;27.70;53.80;;;;;;5093390;28;20103;-60
2021/06/18 08:27:00;;;;;;;3.83;3.45;;;27.70;53.60;;;;;;5088236;28;20089;-59
2021/06/18 08:29:27;;;;;;;3.25;2.95;;;27.70;53.60;;;;;;5092408;28;20432;-61
2021/06/18 08:31:54;;;;;;;3.15;2.75;;;27.70;53.60;;;;;;5086714;28;20029;-59
2021/06/18 08:34:21;;;;;;;3.40;3.00;;;27.70;53.50;;;;;;5088110;28;20043;-60
2021/06/18 08:36:46;;;;;;;3.70;3.40;;;27.80;53.50;;;;;;5088786;28;20084;-59
2021/06/18 08:39:12;;;;;;;3.35;3.13;;;27.70;53.40;;;;;;5083551;28;20028;-58
2021/06/18 08:41:38;;;;;;;3.60;3.30;;;27.70;53.40;;;;;;5087756;28;20024;-58
2021/06/18 08:44:05;;;;;;;3.53;2.88;;;27.70;53.50;;;;;;5079649;28;20444;-58
2021/06/18 08:46:31;;;;;;;3.28;2.97;;;27.70;53.50;;;;;;5080091;28;20031;-58
2021/06/18 08:48:57;;;;;;;2.97;2.75;;;27.70;53.60;;;;;;5086761;28;20032;-57
2021/06/18 08:51:23;;;;;;;3.80;3.47;;;27.70;53.60;;;;;;5086568;28;20024;-59
2021/06/18 08:53:50;;;;;;;4.65;2.72;;;27.80;53.70;;;;;;5078439;28;20032;-58
2021/06/18 08:56:17;;;;;;;3.13;2.83;;;27.70;53.70;;;;;;5077877;28;20048;-58
2021/06/18 08:58:43;;;;;;;4.60;3.00;;;27.80;53.80;;;;;;5086181;28;20024;-59
2021/06/18 09:01:09;;;;;;;2.95;2.72;;;27.80;53.80;;;;;;5085619;28;20028;-59
2021/06/18 09:03:44;;;;;;;3.10;2.80;;;27.80;53.80;;;;;;5091252;28;20028;-60
2021/06/18 09:06:30;;;;;;;3.25;2.95;;;27.80;53.80;;;;;;5086343;28;20051;-59
2021/06/18 09:09:16;;;;;;;3.40;3.10;;;27.80;53.80;;;;;;5086951;28;20103;-60
2021/06/18 09:11:57;;;;;;;3.08;2.80;;;27.80;53.80;;;;;;5088989;28;20032;-58
2021/06/18 09:14:34;;;;;;;2.88;2.65;;;27.80;53.90;;;;;;5079547;28;20090;-58
2021/06/18 09:17:17;;;;;;;3.15;2.80;;;27.90;53.90;;;;;;5091732;28;20122;-59
2021/06/18 09:19:52;;;;;;;3.33;3.00;;;27.90;53.90;;;;;;5085732;28;20496;-60
2021/06/18 09:22:37;;;;;;;2.70;2.50;;;27.90;53.80;;;;;;5093722;28;20039;-58
2021/06/18 09:25:05;;;;;;;2.95;2.75;;;27.90;52.50;;;;;;5095534;28;20090;-60
2021/06/18 09:27:35;;;;;;;2.63;2.42;;;27.90;51.90;;;;;;5096103;28;20039;-54
2021/06/18 09:30:26;;;;;;;2.80;2.45;;;27.80;51.10;;;;;;5094453;28;20047;-59
2021/06/18 09:33:10;;;;;;;2.60;2.40;;;27.80;50.50;;;;;;5088000;28;20030;-61
2021/06/18 09:35:36;;;;;;;2.50;2.30;;;27.80;50.30;;;;;;5087991;28;20020;-60
2021/06/18 09:38:07;;;;;;;2.72;2.40;;;27.70;50.20;;;;;;5086044;28;20066;-59
2021/06/18 09:40:33;;;;;;;2.80;2.60;;;27.70;49.80;;;;;;5075355;28;20047;-58
2021/06/18 09:43:12;;;;;;;2.80;2.60;;;27.70;49.60;;;;;;5089240;28;20115;-60
2021/06/18 09:45:39;;;;;;;2.72;2.53;;;27.70;49.40;;;;;;5079057;28;20036;-59
2021/06/18 09:48:11;;;;;;;2.85;2.45;;;27.70;49.50;;;;;;5083091;28;20032;-59
2021/06/18 09:50:39;;;;;;;2.50;2.20;;;27.70;49.30;;;;;;5077475;28;20486;-60
2021/06/18 09:53:14;;;;;;;3.05;2.30;;;27.70;49.30;;;;;;5082946;28;20033;-60
2021/06/18 09:55:42;;;;;;;4.13;2.42;;;27.70;49.00;;;;;;5083684;28;20093;-63
2021/06/18 09:58:09;;;;;;;2.78;2.58;;;27.70;49.00;;;;;;5092065;28;20407;-62
2021/06/18 10:00:35;;;;;;;2.60;2.40;;;27.70;48.90;;;;;;5083438;28;20062;-62
2021/06/18 10:03:01;;;;;;;2.75;2.53;;;27.60;48.70;;;;;;5080002;28;20044;-61
2021/06/18 10:05:37;;;;;;;3.10;2.70;;;27.70;48.70;;;;;;5082530;28;20042;-60
2021/06/18 10:08:03;;;;;;;2.72;2.53;;;27.70;48.60;;;;;;5081334;28;20333;-62
2021/06/18 10:10:35;;;;;;;2.38;2.17;;;27.70;48.50;;;;;;5081362;28;20049;-59
2021/06/18 10:13:02;;;;;;;2.60;2.40;;;27.70;48.40;;;;;;5087072;28;20059;-61
2021/06/18 10:15:42;;;;;;;2.85;2.65;;;27.70;48.30;;;;;;5082465;28;20531;-50
2021/06/18 10:18:11;;;;;;;3.05;2.80;;;27.70;48.40;;;;;;5079364;28;20427;-52
2021/06/18 10:20:37;;;;;;;3.10;2.83;;;27.50;48.80;;;;;;5090291;28;20137;-59
2021/06/18 10:23:12;;;;;;;3.55;3.00;;;27.30;49.50;;;;;;5090713;28;20125;-58
2021/06/18 10:25:59;;;;;;;7.47;3.55;;;27.10;50.40;;;;;;5074570;28;20021;-56
2021/06/18 10:28:28;;;;;;;3.50;3.20;;;26.80;51.10;;;;;;5082121;28;20031;-56
2021/06/18 10:30:59;;;;;;;3.47;3.17;;;26.60;51.80;;;;;;5086632;28;20448;-56
2021/06/18 10:33:28;;;;;;;3.50;3.20;;;26.40;52.40;;;;;;5080346;28;20137;-58
2021/06/18 10:36:06;;;;;;;3.22;2.88;;;26.20;52.80;;;;;;5076654;28;20119;-53
2021/06/18 10:38:33;;;;;;;3.35;3.05;;;26.10;53.10;;;;;;5080902;28;20024;-54
2021/06/18 10:41:20;;;;;;;3.60;3.15;;;26.00;53.00;;;;;;5080578;28;20047;-53
2021/06/18 10:43:51;;;;;;;4.85;3.03;;;26.00;52.90;;;;;;5082019;28;20452;-61
2021/06/18 10:46:19;;;;;;;3.58;3.20;;;25.90;52.70;;;;;;5082918;28;20040;-51
2021/06/18 10:48:50;;;;;;;5.20;3.20;;;25.90;52.60;;;;;;5083597;28;20447;-57
2021/06/18 10:51:33;;;;;;;3.75;2.80;;;25.80;52.30;;;;;;5082973;28;20395;-54
2021/06/18 10:54:07;;;;;;;3.95;3.13;;;25.80;52.10;;;;;;5088244;28;20038;-53
2021/06/18 10:56:45;;;;;;;3.30;2.97;;;25.70;51.90;;;;;;5093897;28;20134;-52
2021/06/18 10:59:15;;;;;;;3.60;3.30;;;25.70;51.70;;;;;;5089501;28;20031;-53
2021/06/18 11:01:42;;;;;;;3.30;3.00;;;25.60;51.70;;;;;;5085608;28;20039;-54
2021/06/18 11:04:08;;;;;;;3.17;2.88;;;25.60;51.90;;;;;;5079632;28;20028;-53
2021/06/18 11:06:51;;;;;;;3.15;2.85;;;25.70;52.10;;;;;;5086306;28;20032;-53
2021/06/18 11:09:47;;;;;;;3.15;2.85;;;25.90;52.40;;;;;;5077584;28;20335;-53
2021/06/18 11:12:22;;;;;;;3.45;3.15;;;26.00;52.50;;;;;;5075733;28;20040;-53
2021/06/18 11:14:48;;;;;;;2.67;2.47;;;26.20;52.50;;;;;;5084969;28;20043;-54
2021/06/18 11:17:39;;;;;;;3.58;3.05;;;26.30;52.30;;;;;;5081396;28;20032;-55
2021/06/18 11:20:10;;;;;;;3.20;2.63;;;26.50;52.30;;;;;;5084855;28;20052;-55
2021/06/18 11:22:51;;;;;;;4.00;2.95;;;26.60;52.20;;;;;;5082575;28;20020;-56
2021/06/18 11:25:36;;;;;;;3.40;3.10;;;26.70;52.30;;;;;;5083920;28;20083;-55
2021/06/18 11:31:17;;;;;;;3.10;2.83;;;26.90;52.40;;;;;;5088968;28;20036;-57
2021/06/18 11:33:57;;;;;;;3.30;3.00;;;27.00;52.40;;;;;;5068841;28;20063;-58
2021/06/18 11:36:24;;;;;;;2.88;2.67;;;27.00;52.40;;;;;;5086356;28;20032;-58
2021/06/18 11:38:51;;;;;;;3.28;2.97;;;27.10;52.40;;;;;;5082752;28;20032;-56
2021/06/18 11:41:25;;;;;;;3.92;3.03;;;27.20;52.50;;;;;;5081524;28;20020;-53
2021/06/18 11:43:55;;;;;;;3.28;2.97;;;27.20;52.40;;;;;;5087561;28;20094;-56
2021/06/18 11:46:23;;;;;;;3.30;3.03;;;27.30;52.30;;;;;;5087158;28;20378;-59
2021/06/18 11:48:50;;;;;;;3.50;2.85;;;27.40;52.20;;;;;;5083860;28;20020;-58
2021/06/18 11:51:24;;;;;;;3.67;3.38;;;27.40;52.20;;;;;;5085226;28;20130;-53
2021/06/18 11:53:51;;;;;;;4.72;4.25;;;27.50;52.90;;;;;;5086605;28;20112;-61
2021/06/18 11:56:17;;;;;;;4.35;3.95;;;27.50;53.00;;;;;;5063700;28;20052;-59
2021/06/18 11:58:46;;;;;;;4.53;4.13;;;27.30;52.60;;;;;;5086264;28;20048;-63
2021/06/18 12:01:16;;;;;;;4.90;4.40;;;27.20;52.40;;;;;;5085511;28;20028;-62
2021/06/18 12:03:44;;;;;;;5.13;4.22;;;27.00;52.70;;;;;;5081522;28;20328;-59
2021/06/18 12:06:30;;;;;;;5.78;4.50;;;26.90;53.30;;;;;;5084556;28;20623;-60
2021/06/18 12:09:16;;;;;;;5.68;4.30;;;26.80;53.80;;;;;;5086213;28;20028;-59
2021/06/18 12:11:45;;;;;;;4.15;3.75;;;26.70;53.90;;;;;;5081270;28;20047;-53
2021/06/18 12:14:15;;;;;;;7.88;4.20;;;26.70;53.90;;;;;;5081703;28;20037;-55
2021/06/18 12:16:52;;;;;;;4.45;4.05;;;26.60;53.90;;;;;;5087239;28;20051;-55
2021/06/18 12:19:33;;;;;;;5.32;4.00;;;26.60;54.30;;;;;;5084636;28;20542;-58
2021/06/18 12:22:18;;;;;;;4.20;3.80;;;26.60;54.60;;;;;;5087273;28;20028;-58
2021/06/18 12:24:55;;;;;;;5.00;3.92;;;26.50;54.60;;;;;;5084471;28;20519;-57
2021/06/18 12:27:23;;;;;;;4.45;3.90;;;26.40;54.30;;;;;;5084948;28;20146;-56
2021/06/18 12:29:57;;;;;;;4.47;4.07;;;26.40;54.60;;;;;;5086226;28;20069;-57
2021/06/18 12:32:25;;;;;;;;;;;26.30;54.80;;;;;;5086660;28;20039;-59
2021/06/18 12:34:53;;;;;;;4.15;3.70;;;26.30;55.10;;;;;;5086377;28;20362;-52
2021/06/18 12:37:22;;;;;;;6.50;4.13;;;26.10;55.20;;;;;;5086896;28;20491;-60
2021/06/18 12:39:55;;;;;;;4.43;4.03;;;26.10;55.60;;;;;;5089444;28;20050;-57
2021/06/18 12:42:31;;;;;;;4.37;3.97;;;26.10;55.90;;;;;;5081639;28;20043;-57
2021/06/18 12:45:03;;;;;;;4.38;3.97;;;26.10;55.90;;;;;;5087658;28;20282;-58
2021/06/18 12:47:29;;;;;;;4.00;3.70;;;26.10;55.50;;;;;;5091285;28;20111;-58
2021/06/18 12:49:54;;;;;;;4.32;3.58;;;26.10;55.70;;;;;;5093073;28;20095;-56
2021/06/18 12:52:20;;;;;;;4.20;3.80;;;26.10;55.90;;;;;;5092176;28;20057;-51
2021/06/18 12:54:46;;;;;;;3.80;3.50;;;26.10;56.00;;;;;;5094099;28;20032;-55
2021/06/18 12:57:26;;;;;;;3.60;3.30;;;26.10;55.70;;;;;;5089691;28;20051;-60
2021/06/18 13:00:08;;;;;;;5.10;4.25;;;26.10;55.90;;;;;;5090619;28;20367;-54
2021/06/18 13:02:41;;;;;;;3.78;3.47;;;26.10;56.10;;;;;;5089509;28;20047;-59